Time;durP1;ratioP1;P1;durP2;ratioP2;P2;SDS_P1;SDS_P2;PMS_P1;PMS_P2;Temp;Humidity;BMP_temperature;BMP_pressure;BME280_temperature;BME280_humidity;BME280_pressure;Samples;Min_cycle;Max_cycle;Signal;HPM_P1;HPM_P2
2023/06/01 00:00:01;;;;;;;1.20;0.80;;;18.30;67.00;;;;;;5114949;28;20471;-58
2023/06/01 00:02:29;;;;;;;1.70;0.80;;;18.30;67.80;;;;;;5115297;28;20465;-60
2023/06/01 00:04:56;;;;;;;1.50;0.88;;;18.20;68.10;;;;;;5119225;28;20840;-56
2023/06/01 00:07:24;;;;;;;1.60;0.80;;;18.20;68.90;;;;;;5118309;28;20476;-56
2023/06/01 00:09:51;;;;;;;1.63;0.70;;;18.20;69.10;;;;;;5119394;28;20428;-58
2023/06/01 00:12:19;;;;;;;2.10;0.80;;;18.10;69.40;;;;;;5118989;28;20498;-57
2023/06/01 00:14:46;;;;;;;1.55;0.80;;;18.10;69.70;;;;;;5118807;28;20473;-56
2023/06/01 00:17:13;;;;;;;1.20;0.80;;;17.90;69.90;;;;;;5118512;28;20428;-58
2023/06/01 00:19:40;;;;;;;1.27;0.80;;;17.80;70.20;;;;;;5118336;28;20444;-59
2023/06/01 00:22:08;;;;;;;1.40;0.70;;;17.80;71.50;;;;;;5118815;28;20412;-57
2023/06/01 00:24:35;;;;;;;1.42;0.80;;;17.80;72.30;;;;;;5118366;28;20469;-60
2023/06/01 00:27:02;;;;;;;1.50;0.80;;;17.90;73.30;;;;;;5118604;28;20439;-58
2023/06/01 00:29:30;;;;;;;1.80;0.90;;;17.90;73.50;;;;;;5118258;28;21069;-58
2023/06/01 00:31:57;;;;;;;1.30;0.70;;;18.00;73.60;;;;;;5118128;28;20509;-58
2023/06/01 00:34:24;;;;;;;1.17;0.80;;;17.80;73.40;;;;;;5118737;28;20473;-58
2023/06/01 00:36:51;;;;;;;1.80;0.80;;;17.70;73.60;;;;;;5118773;28;20424;-58
2023/06/01 00:39:19;;;;;;;1.10;0.70;;;17.70;74.30;;;;;;5117821;28;20428;-57
2023/06/01 00:41:46;;;;;;;1.50;0.80;;;17.60;74.50;;;;;;5117697;28;20427;-58
2023/06/01 00:44:13;;;;;;;1.30;0.80;;;17.50;75.20;;;;;;5117744;28;20505;-58
2023/06/01 00:46:41;;;;;;;1.70;0.80;;;17.50;77.10;;;;;;5118371;28;20411;-58
2023/06/01 00:49:08;;;;;;;2.00;0.90;;;17.50;77.70;;;;;;5118332;28;20812;-57
2023/06/01 00:51:35;;;;;;;1.60;0.70;;;17.50;78.20;;;;;;5117552;28;20919;-54
2023/06/01 00:54:02;;;;;;;1.20;0.80;;;17.40;78.60;;;;;;5117974;28;20732;-55
2023/06/01 00:56:31;;;;;;;1.90;0.80;;;17.40;79.30;;;;;;5117616;28;20773;-56
2023/06/01 00:58:58;;;;;;;1.50;0.80;;;17.40;79.50;;;;;;5117812;28;20491;-58
2023/06/01 01:01:25;;;;;;;2.40;0.70;;;17.40;80.20;;;;;;5117755;28;20424;-57
2023/06/01 01:03:59;;;;;;;1.60;0.80;;;17.30;80.20;;;;;;5117622;28;20465;-58
2023/06/01 01:06:48;;;;;;;1.50;0.70;;;17.30;80.50;;;;;;5118322;28;20424;-56
2023/06/01 01:09:23;;;;;;;4.32;0.90;;;17.30;80.30;;;;;;5117101;28;20431;-58
2023/06/01 01:11:56;;;;;;;1.00;0.70;;;17.40;80.40;;;;;;5116942;28;20424;-57
2023/06/01 01:14:26;;;;;;;1.23;0.80;;;17.40;80.80;;;;;;5115612;28;20843;-57
2023/06/01 01:17:02;;;;;;;1.20;0.80;;;17.50;81.20;;;;;;5117500;28;20806;-58
2023/06/01 01:19:53;;;;;;;1.70;0.70;;;17.50;81.10;;;;;;5117334;28;20427;-58
2023/06/01 01:22:30;;;;;;;1.60;0.75;;;17.40;82.10;;;;;;5117800;28;20412;-58
2023/06/01 01:25:19;;;;;;;1.30;0.70;;;17.30;82.70;;;;;;5117414;28;20420;-57
2023/06/01 01:28:13;;;;;;;2.20;0.80;;;17.20;83.40;;;;;;5117893;28;20424;-57
2023/06/01 01:30:43;;;;;;;1.30;0.80;;;17.10;84.50;;;;;;5117435;28;20467;-57
2023/06/01 01:33:11;;;;;;;2.30;0.80;;;17.10;85.00;;;;;;5117589;28;20428;-56
2023/06/01 01:35:39;;;;;;;1.17;0.70;;;17.00;85.80;;;;;;5116948;28;20655;-57
2023/06/01 01:38:06;;;;;;;1.13;0.80;;;17.00;86.20;;;;;;5117292;28;20428;-57
2023/06/01 01:40:33;;;;;;;1.00;0.70;;;17.00;86.80;;;;;;5117178;28;20735;-57
2023/06/01 01:43:02;;;;;;;1.35;0.60;;;17.00;87.90;;;;;;5117360;28;20489;-58
2023/06/01 01:45:30;;;;;;;1.50;0.80;;;17.00;87.80;;;;;;5117432;28;20428;-58
2023/06/01 01:48:06;;;;;;;2.33;0.80;;;16.80;88.20;;;;;;5117085;28;20781;-57
2023/06/01 01:50:39;;;;;;;1.30;0.70;;;16.70;88.90;;;;;;5117014;28;20432;-58
2023/06/01 01:53:09;;;;;;;1.75;0.70;;;16.70;90.00;;;;;;5116248;28;20428;-56
2023/06/01 01:55:37;;;;;;;1.80;0.75;;;16.70;90.20;;;;;;5116562;28;20785;-56
2023/06/01 01:58:04;;;;;;;1.60;0.80;;;16.70;90.50;;;;;;5116903;28;20481;-57
2023/06/01 02:00:32;;;;;;;1.60;0.70;;;16.60;91.30;;;;;;5116459;28;20451;-57
2023/06/01 02:03:01;;;;;;;1.10;0.70;;;16.60;92.10;;;;;;5116490;28;20511;-57
2023/06/01 02:05:28;;;;;;;1.08;0.70;;;16.60;92.30;;;;;;5116800;28;20497;-57
2023/06/01 02:07:55;;;;;;;1.00;0.70;;;16.70;92.80;;;;;;5116434;28;20420;-57
2023/06/01 02:10:23;;;;;;;1.27;0.70;;;16.70;92.70;;;;;;5116903;28;20777;-57
2023/06/01 02:12:49;;;;;;;1.80;0.80;;;16.80;93.30;;;;;;5116570;28;20489;-57
2023/06/01 02:15:16;;;;;;;1.20;0.80;;;16.80;93.10;;;;;;5115832;28;20435;-54
2023/06/01 02:17:43;;;;;;;1.00;0.70;;;16.70;93.60;;;;;;5116575;28;20427;-56
2023/06/01 02:20:12;;;;;;;1.75;0.70;;;16.60;93.90;;;;;;5116282;28;20430;-57
2023/06/01 02:22:39;;;;;;;1.50;0.70;;;16.60;95.40;;;;;;5116036;28;20423;-57
2023/06/01 02:25:07;;;;;;;2.03;0.80;;;16.50;96.00;;;;;;5116262;28;20515;-57
2023/06/01 02:27:34;;;;;;;1.20;0.70;;;16.50;96.80;;;;;;5115966;28;20424;-57
2023/06/01 02:30:01;;;;;;;1.40;0.73;;;16.50;97.50;;;;;;5116235;28;20436;-59
2023/06/01 02:32:30;;;;;;;1.15;0.80;;;16.50;98.20;;;;;;5116234;28;20432;-57
2023/06/01 02:34:57;;;;;;;1.07;0.77;;;16.50;98.30;;;;;;5116083;28;20416;-58
2023/06/01 02:37:26;;;;;;;1.20;0.80;;;16.50;98.60;;;;;;5115743;28;20493;-56
2023/06/01 02:39:53;;;;;;;1.23;0.80;;;16.40;99.30;;;;;;5116440;28;20471;-57
2023/06/01 02:42:20;;;;;;;1.10;0.90;;;16.40;99.10;;;;;;5115923;28;20424;-56
2023/06/01 02:44:47;;;;;;;1.40;0.80;;;16.40;99.20;;;;;;5115725;28;20508;-59
2023/06/01 02:47:14;;;;;;;2.15;0.90;;;16.30;99.90;;;;;;5115904;28;20916;-56
2023/06/01 02:49:41;;;;;;;1.52;0.75;;;16.20;99.90;;;;;;5115571;28;20477;-58
2023/06/01 02:52:08;;;;;;;1.20;0.80;;;16.10;99.90;;;;;;5116586;28;20486;-58
2023/06/01 02:54:37;;;;;;;1.43;0.80;;;15.90;99.90;;;;;;5115168;28;20507;-57
2023/06/01 02:57:05;;;;;;;2.70;0.80;;;15.90;99.90;;;;;;5114813;28;20427;-56
2023/06/01 02:59:32;;;;;;;1.27;0.77;;;15.90;99.90;;;;;;5114906;28;20432;-59
2023/06/01 03:01:59;;;;;;;1.70;0.73;;;15.80;99.90;;;;;;5114208;28;20620;-57
2023/06/01 03:04:28;;;;;;;2.30;0.80;;;15.80;99.90;;;;;;5115691;28;20530;-55
2023/06/01 03:06:56;;;;;;;2.20;0.70;;;15.90;99.90;;;;;;5115338;28;20435;-58
2023/06/01 03:09:23;;;;;;;2.30;0.80;;;15.80;99.90;;;;;;5115600;28;20918;-56
2023/06/01 03:11:51;;;;;;;1.50;0.70;;;15.80;99.90;;;;;;5115787;28;20428;-57
2023/06/01 03:14:18;;;;;;;2.53;0.80;;;15.90;99.90;;;;;;5115969;28;20486;-57
2023/06/01 03:16:46;;;;;;;1.77;0.70;;;15.90;99.90;;;;;;5114024;28;20429;-57
2023/06/01 03:19:13;;;;;;;1.92;0.70;;;16.00;99.90;;;;;;5115981;28;20510;-55
2023/06/01 03:21:40;;;;;;;1.45;0.90;;;16.00;99.90;;;;;;5115517;28;20435;-55
2023/06/01 03:24:08;;;;;;;1.30;0.80;;;15.90;99.90;;;;;;5114250;28;20493;-57
2023/06/01 03:26:35;;;;;;;1.90;0.70;;;15.90;99.90;;;;;;5115186;28;20424;-58
2023/06/01 03:29:04;;;;;;;1.50;0.70;;;15.80;99.90;;;;;;5114845;28;20485;-57
2023/06/01 03:31:34;;;;;;;3.00;0.80;;;15.70;99.90;;;;;;5114934;28;20424;-57
2023/06/01 03:34:01;;;;;;;1.17;0.80;;;15.70;99.90;;;;;;5114892;28;20485;-58
2023/06/01 03:36:28;;;;;;;1.10;0.80;;;15.60;99.90;;;;;;5114459;28;20428;-56
2023/06/01 03:38:55;;;;;;;1.60;0.70;;;15.60;99.90;;;;;;5118519;28;20898;-57
2023/06/01 03:41:23;;;;;;;5.10;0.80;;;15.60;99.90;;;;;;5118941;28;20511;-57
2023/06/01 03:43:50;;;;;;;2.60;0.90;;;15.60;99.90;;;;;;5119544;28;20432;-57
2023/06/01 03:46:18;;;;;;;1.80;0.85;;;15.70;99.90;;;;;;5119077;28;20459;-58
2023/06/01 03:48:45;;;;;;;1.90;0.82;;;15.70;99.90;;;;;;5119154;28;20522;-56
2023/06/01 03:51:12;;;;;;;1.67;0.80;;;15.70;99.90;;;;;;5119486;28;20925;-59
2023/06/01 03:53:39;;;;;;;1.88;0.80;;;15.80;99.90;;;;;;5119318;28;20416;-58
2023/06/01 03:56:06;;;;;;;1.05;0.77;;;15.80;99.90;;;;;;5119394;28;20476;-57
2023/06/01 03:58:33;;;;;;;1.10;0.80;;;15.70;99.90;;;;;;5118512;28;20424;-58
2023/06/01 04:01:03;;;;;;;1.60;0.80;;;15.70;99.90;;;;;;5118127;28;20465;-57
2023/06/01 04:03:32;;;;;;;1.40;0.75;;;15.70;99.90;;;;;;5118834;28;20688;-57
2023/06/01 04:06:01;;;;;;;1.70;0.80;;;15.80;99.90;;;;;;5118231;28;20428;-58
2023/06/01 04:08:29;;;;;;;1.60;0.80;;;15.70;99.90;;;;;;5118745;28;20427;-59
2023/06/01 04:10:56;;;;;;;1.67;0.90;;;15.70;99.90;;;;;;5118744;28;20498;-59
2023/06/01 04:13:23;;;;;;;1.20;0.73;;;15.70;99.90;;;;;;5118059;28;20416;-57
2023/06/01 04:15:50;;;;;;;1.30;0.80;;;15.70;99.90;;;;;;5118636;28;20851;-58
2023/06/01 04:18:17;;;;;;;1.20;0.80;;;15.70;99.90;;;;;;5118196;28;20435;-59
2023/06/01 04:20:45;;;;;;;1.70;0.80;;;15.70;99.90;;;;;;5118514;28;20428;-56
2023/06/01 04:23:12;;;;;;;1.70;0.88;;;15.70;99.90;;;;;;5117923;28;20481;-55
2023/06/01 04:25:40;;;;;;;2.25;0.80;;;15.60;99.90;;;;;;5118583;28;20462;-56
2023/06/01 04:28:07;;;;;;;1.40;0.80;;;15.70;99.90;;;;;;5116763;28;20423;-56
2023/06/01 04:30:35;;;;;;;1.50;0.80;;;15.50;99.90;;;;;;5118355;28;20431;-56
2023/06/01 04:33:02;;;;;;;1.90;0.90;;;15.50;99.90;;;;;;5118729;28;20439;-57
2023/06/01 04:35:30;;;;;;;1.10;0.70;;;15.40;99.90;;;;;;5117830;28;20427;-57
2023/06/01 04:37:58;;;;;;;1.20;0.80;;;15.40;99.90;;;;;;5116486;28;20411;-56
2023/06/01 04:40:26;;;;;;;1.10;0.70;;;15.50;99.90;;;;;;5117002;28;20543;-58
2023/06/01 04:42:55;;;;;;;2.20;0.80;;;15.60;99.90;;;;;;5117034;28;20428;-56
2023/06/01 04:45:23;;;;;;;1.65;0.70;;;15.70;99.90;;;;;;5117886;28;20434;-58
2023/06/01 04:47:50;;;;;;;1.27;0.80;;;15.70;99.90;;;;;;5116885;28;20489;-56
2023/06/01 04:50:17;;;;;;;2.30;0.80;;;15.80;99.90;;;;;;5115251;28;20435;-54
2023/06/01 04:52:45;;;;;;;1.50;0.77;;;15.70;99.90;;;;;;5115566;28;20420;-58
2023/06/01 04:55:14;;;;;;;2.20;0.80;;;15.80;99.90;;;;;;5117178;28;20495;-57
2023/06/01 04:57:43;;;;;;;1.30;0.80;;;15.80;99.90;;;;;;5117338;28;21018;-56
2023/06/01 05:00:13;;;;;;;1.30;0.90;;;15.80;99.90;;;;;;5117429;28;20529;-56
2023/06/01 05:02:42;;;;;;;1.25;0.70;;;15.90;99.90;;;;;;5118094;28;20534;-55
2023/06/01 05:05:09;;;;;;;1.58;0.90;;;16.00;99.90;;;;;;5116191;28;20439;-57
2023/06/01 05:07:38;;;;;;;2.83;0.75;;;16.00;99.90;;;;;;5115162;28;20862;-56
2023/06/01 05:10:07;;;;;;;1.67;0.70;;;16.10;99.90;;;;;;5116705;28;20477;-55
2023/06/01 05:12:37;;;;;;;1.20;0.80;;;16.20;99.90;;;;;;5117260;28;20427;-57
2023/06/01 05:15:05;;;;;;;2.40;0.80;;;16.20;99.90;;;;;;5116830;28;20476;-55
2023/06/01 05:17:33;;;;;;;1.98;0.80;;;16.40;99.90;;;;;;5114384;28;20436;-55
2023/06/01 05:20:00;;;;;;;1.70;0.80;;;16.40;99.90;;;;;;5116292;28;20419;-54
2023/06/01 05:22:27;;;;;;;1.13;0.73;;;16.50;99.90;;;;;;5116893;28;20424;-57
2023/06/01 05:24:55;;;;;;;1.50;0.77;;;16.40;99.90;;;;;;5115034;28;20428;-54
2023/06/01 05:27:22;;;;;;;1.30;0.80;;;16.40;99.90;;;;;;5114139;28;20829;-55
2023/06/01 05:29:50;;;;;;;2.63;0.73;;;16.30;99.90;;;;;;5114773;28;20428;-56
2023/06/01 05:32:17;;;;;;;1.23;0.77;;;16.30;99.90;;;;;;5114398;28;20489;-57
2023/06/01 05:34:44;;;;;;;0.90;0.70;;;16.30;99.90;;;;;;5114685;28;20412;-57
2023/06/01 05:37:11;;;;;;;1.30;0.87;;;16.40;99.90;;;;;;5114350;28;20428;-56
2023/06/01 05:39:38;;;;;;;1.33;0.70;;;16.40;99.90;;;;;;5115908;28;20481;-55
2023/06/01 05:42:06;;;;;;;1.20;0.80;;;16.50;99.90;;;;;;5116047;28;20424;-56
2023/06/01 05:44:33;;;;;;;1.30;0.75;;;16.60;99.90;;;;;;5116339;28;20435;-55
2023/06/01 05:47:02;;;;;;;1.80;0.80;;;16.70;99.90;;;;;;5114442;28;20424;-56
2023/06/01 05:49:31;;;;;;;3.05;0.80;;;16.70;99.90;;;;;;5114866;28;20424;-56
2023/06/01 05:51:58;;;;;;;1.30;0.80;;;16.90;99.90;;;;;;5116136;28;20473;-54
2023/06/01 05:54:25;;;;;;;1.50;0.70;;;17.00;99.90;;;;;;5115640;28;20754;-56
2023/06/01 05:56:52;;;;;;;1.20;0.70;;;17.10;99.90;;;;;;5114193;28;20439;-56
2023/06/01 05:59:19;;;;;;;1.60;0.68;;;17.20;99.90;;;;;;5114614;28;20844;-58
2023/06/01 06:01:47;;;;;;;1.27;0.70;;;17.20;99.90;;;;;;5113715;28;20839;-58
2023/06/01 06:04:16;;;;;;;1.90;0.77;;;17.30;99.90;;;;;;5112827;28;20420;-58
2023/06/01 06:06:43;;;;;;;1.20;0.77;;;17.30;99.90;;;;;;5111577;28;20435;-58
2023/06/01 06:09:13;;;;;;;1.97;0.80;;;17.50;99.90;;;;;;5111482;28;20431;-59
2023/06/01 06:11:40;;;;;;;2.30;0.70;;;17.70;99.90;;;;;;5110602;28;20515;-58
2023/06/01 06:14:07;;;;;;;2.20;0.77;;;17.90;99.90;;;;;;5111948;28;20724;-59
2023/06/01 06:16:34;;;;;;;1.00;0.70;;;17.80;99.90;;;;;;5112773;28;20412;-57
2023/06/01 06:19:01;;;;;;;1.55;0.80;;;17.60;99.90;;;;;;5110825;28;20723;-58
2023/06/01 06:21:31;;;;;;;2.17;0.70;;;17.60;99.90;;;;;;5111786;28;20420;-58
2023/06/01 06:23:59;;;;;;;2.10;0.80;;;17.70;99.90;;;;;;5112169;28;20420;-58
2023/06/01 06:26:27;;;;;;;3.00;0.70;;;17.80;99.90;;;;;;5110582;28;20428;-54
2023/06/01 06:28:54;;;;;;;2.20;0.77;;;18.00;99.90;;;;;;5111946;28;21036;-56
2023/06/01 06:31:21;;;;;;;2.10;0.80;;;18.30;99.90;;;;;;5111616;28;20422;-56
2023/06/01 06:33:48;;;;;;;2.22;0.80;;;18.40;99.90;;;;;;5111577;28;20782;-57
2023/06/01 06:36:16;;;;;;;1.50;0.80;;;18.40;99.90;;;;;;5109590;28;20488;-57
2023/06/01 06:38:44;;;;;;;1.70;0.80;;;18.40;99.90;;;;;;5109714;28;20823;-57
2023/06/01 06:41:11;;;;;;;1.50;0.70;;;18.50;99.90;;;;;;5109769;28;20845;-55
2023/06/01 06:43:39;;;;;;;1.50;0.80;;;18.50;99.90;;;;;;5109362;28;20424;-56
2023/06/01 06:46:06;;;;;;;1.27;0.80;;;18.50;99.90;;;;;;5110515;28;20835;-57
2023/06/01 06:48:33;;;;;;;2.60;0.80;;;18.60;99.90;;;;;;5111890;28;20424;-57
2023/06/01 06:51:00;;;;;;;1.20;0.80;;;18.70;99.90;;;;;;5112080;28;20447;-56
2023/06/01 06:53:27;;;;;;;1.92;0.70;;;18.70;99.90;;;;;;5112129;28;20424;-52
2023/06/01 06:55:56;;;;;;;1.80;0.80;;;18.80;99.90;;;;;;5112758;28;20416;-54
2023/06/01 06:58:23;;;;;;;1.40;0.70;;;19.00;99.90;;;;;;5113073;28;20470;-54
2023/06/01 07:00:50;;;;;;;1.10;0.80;;;19.10;99.90;;;;;;5111731;28;20424;-56
2023/06/01 07:03:17;;;;;;;2.25;0.80;;;19.10;99.90;;;;;;5111500;28;20435;-53
2023/06/01 07:05:45;;;;;;;2.30;0.70;;;19.30;99.90;;;;;;5109741;28;20439;-56
2023/06/01 07:08:12;;;;;;;1.47;0.80;;;19.40;99.90;;;;;;5109206;28;20895;-54
2023/06/01 07:10:39;;;;;;;2.07;1.00;;;19.40;99.90;;;;;;5109245;28;20420;-54
2023/06/01 07:13:07;;;;;;;2.03;0.82;;;19.40;99.90;;;;;;5110754;28;20515;-53
2023/06/01 07:15:34;;;;;;;2.00;0.90;;;19.60;99.90;;;;;;5110776;28;20539;-56
2023/06/01 07:18:01;;;;;;;1.00;0.80;;;19.60;99.90;;;;;;5093580;28;20433;-55
2023/06/01 07:20:28;;;;;;;2.85;0.80;;;19.60;99.90;;;;;;5101727;28;20483;-54
2023/06/01 07:22:56;;;;;;;1.88;0.80;;;19.70;99.90;;;;;;5089925;28;20502;-54
2023/06/01 07:25:23;;;;;;;1.30;0.90;;;19.70;99.90;;;;;;5104182;28;20453;-55
2023/06/01 07:27:51;;;;;;;1.70;0.80;;;19.90;99.90;;;;;;5088804;28;20433;-54
2023/06/01 07:30:19;;;;;;;1.70;0.80;;;20.10;99.90;;;;;;5102538;28;20425;-53
2023/06/01 07:32:46;;;;;;;2.30;0.90;;;20.20;99.90;;;;;;5090688;28;20426;-57
2023/06/01 07:35:13;;;;;;;1.70;0.80;;;20.30;99.90;;;;;;5095159;28;20847;-56
2023/06/01 07:37:41;;;;;;;1.60;0.90;;;20.50;99.90;;;;;;5096615;28;20425;-57
2023/06/01 07:40:09;;;;;;;2.40;0.80;;;20.50;99.90;;;;;;5088353;28;20413;-57
2023/06/01 07:42:36;;;;;;;1.20;0.80;;;20.70;99.90;;;;;;5088610;28;20491;-54
2023/06/01 07:45:03;;;;;;;1.75;0.75;;;20.80;99.90;;;;;;5090249;28;20437;-56
2023/06/01 07:47:31;;;;;;;1.50;0.88;;;20.90;99.70;;;;;;5089127;28;20456;-52
2023/06/01 07:49:58;;;;;;;1.20;0.80;;;21.00;99.70;;;;;;5088158;28;20414;-53
2023/06/01 07:52:25;;;;;;;1.20;0.75;;;21.10;99.30;;;;;;5088816;28;20849;-58
2023/06/01 07:54:53;;;;;;;1.30;0.80;;;21.00;99.40;;;;;;5089322;28;20479;-56
2023/06/01 07:57:20;;;;;;;2.43;0.90;;;21.00;98.70;;;;;;5091126;28;20626;-56
2023/06/01 07:59:47;;;;;;;1.50;0.90;;;21.00;98.80;;;;;;5091300;28;20515;-58
2023/06/01 08:02:14;;;;;;;3.60;1.70;;;21.10;98.40;;;;;;5090389;28;20430;-58
2023/06/01 08:04:44;;;;;;;1.70;1.00;;;21.30;98.20;;;;;;5089627;28;20418;-57
2023/06/01 08:07:12;;;;;;;2.70;0.90;;;21.40;97.80;;;;;;5089655;28;20426;-56
2023/06/01 08:09:39;;;;;;;1.20;0.80;;;21.50;97.30;;;;;;5089686;28;21130;-56
2023/06/01 08:12:07;;;;;;;1.67;1.10;;;21.60;97.00;;;;;;5087826;28;20752;-56
2023/06/01 08:14:34;;;;;;;1.40;0.90;;;21.80;96.40;;;;;;5088389;28;20445;-56
2023/06/01 08:17:03;;;;;;;1.88;0.90;;;21.90;96.00;;;;;;5086936;28;20434;-59
2023/06/01 08:19:31;;;;;;;2.30;0.90;;;21.90;96.00;;;;;;5096053;28;20694;-57
2023/06/01 08:21:59;;;;;;;1.70;0.88;;;22.00;95.50;;;;;;5092465;28;20458;-58
2023/06/01 08:24:26;;;;;;;1.95;0.98;;;22.00;95.00;;;;;;5093240;28;20429;-57
2023/06/01 08:26:57;;;;;;;2.13;0.90;;;22.00;95.20;;;;;;5107526;28;20451;-58
2023/06/01 08:29:24;;;;;;;1.90;0.90;;;22.20;95.00;;;;;;5091683;28;20565;-58
2023/06/01 08:31:51;;;;;;;1.80;1.00;;;22.40;94.80;;;;;;5092560;28;20790;-57
2023/06/01 08:34:18;;;;;;;1.40;0.90;;;22.50;94.30;;;;;;5092076;28;20429;-56
2023/06/01 08:36:45;;;;;;;1.90;1.00;;;22.60;93.90;;;;;;5097137;28;20496;-58
2023/06/01 08:39:23;;;;;;;1.55;0.90;;;22.50;93.60;;;;;;5096280;28;20432;-56
2023/06/01 08:42:06;;;;;;;1.40;0.90;;;22.50;93.90;;;;;;5110925;28;20438;-56
2023/06/01 08:44:37;;;;;;;2.05;1.10;;;22.50;93.80;;;;;;5096068;28;20433;-57
2023/06/01 08:47:05;;;;;;;1.30;0.90;;;22.40;93.40;;;;;;5106099;28;20449;-55
2023/06/01 08:49:33;;;;;;;1.95;0.90;;;22.40;93.50;;;;;;5094325;28;20471;-57
2023/06/01 08:52:01;;;;;;;2.60;1.00;;;22.60;93.40;;;;;;5103507;28;20469;-56
2023/06/01 08:54:30;;;;;;;1.38;1.00;;;23.00;92.70;;;;;;5109979;28;20942;-56
2023/06/01 08:57:00;;;;;;;1.50;1.00;;;23.00;91.80;;;;;;5110031;28;20432;-55
2023/06/01 08:59:27;;;;;;;2.60;1.00;;;22.90;91.20;;;;;;5113005;28;20747;-56
2023/06/01 09:01:54;;;;;;;2.20;1.10;;;23.00;91.60;;;;;;5111393;28;20424;-56
2023/06/01 09:04:21;;;;;;;1.77;1.00;;;23.30;90.70;;;;;;5111138;28;20419;-57
2023/06/01 09:06:48;;;;;;;2.10;1.10;;;23.30;90.00;;;;;;5111565;28;20480;-57
2023/06/01 09:09:15;;;;;;;1.10;0.90;;;23.10;89.90;;;;;;5113537;28;20426;-56
2023/06/01 09:11:44;;;;;;;1.77;1.10;;;23.20;90.60;;;;;;5113589;28;20424;-56
2023/06/01 09:14:22;;;;;;;2.22;1.00;;;23.20;90.00;;;;;;5113449;28;20436;-57
2023/06/01 09:16:49;;;;;;;1.58;0.90;;;23.40;90.20;;;;;;5112469;28;20511;-57
2023/06/01 09:19:18;;;;;;;1.30;1.00;;;23.60;88.70;;;;;;5111705;28;20778;-57
2023/06/01 09:21:57;;;;;;;1.73;1.00;;;23.80;88.30;;;;;;5111535;28;20515;-57
2023/06/01 09:24:25;;;;;;;1.15;0.90;;;24.10;86.80;;;;;;5113375;28;20514;-58
2023/06/01 09:27:00;;;;;;;2.10;1.17;;;24.00;85.10;;;;;;5113328;28;20432;-57
2023/06/01 09:29:27;;;;;;;2.05;1.00;;;24.00;85.10;;;;;;5097204;28;20470;-59
2023/06/01 09:31:55;;;;;;;1.63;1.00;;;24.20;84.70;;;;;;5084175;28;20434;-59
2023/06/01 09:34:23;;;;;;;1.33;1.00;;;24.20;83.40;;;;;;5091739;28;20899;-57
2023/06/01 09:36:51;;;;;;;1.50;1.00;;;24.00;84.60;;;;;;5093515;28;20622;-58
2023/06/01 09:39:19;;;;;;;2.10;1.08;;;24.30;84.10;;;;;;5097402;28;20432;-57
2023/06/01 09:41:51;;;;;;;1.90;0.98;;;24.30;82.60;;;;;;5094234;28;20891;-59
2023/06/01 09:44:27;;;;;;;1.83;1.10;;;24.30;82.80;;;;;;5092436;28;20722;-58
2023/06/01 09:46:56;;;;;;;3.25;1.10;;;24.50;83.50;;;;;;5110432;28;20424;-58
2023/06/01 09:49:25;;;;;;;2.10;0.90;;;24.70;82.30;;;;;;5101820;28;20428;-59
2023/06/01 09:51:54;;;;;;;4.25;3.55;;;25.00;82.10;;;;;;5106438;28;20428;-58
2023/06/01 09:54:26;;;;;;;1.40;1.10;;;25.10;81.10;;;;;;5095795;28;20435;-58
2023/06/01 09:56:53;;;;;;;2.20;1.00;;;25.10;80.10;;;;;;5092293;28;20429;-58
2023/06/01 09:59:21;;;;;;;2.00;1.10;;;25.40;79.30;;;;;;5094787;28;20479;-58
2023/06/01 10:01:53;;;;;;;1.70;1.00;;;25.50;78.90;;;;;;5091369;28;20425;-58
2023/06/01 10:04:24;;;;;;;1.55;1.10;;;25.90;76.70;;;;;;5102432;28;20531;-58
2023/06/01 10:06:54;;;;;;;1.77;1.10;;;26.00;76.10;;;;;;5104616;28;20971;-58
2023/06/01 10:09:24;;;;;;;1.30;1.00;;;26.10;75.60;;;;;;5096298;28;20506;-58
2023/06/01 10:11:54;;;;;;;2.47;1.50;;;26.20;75.00;;;;;;5097573;28;20426;-58
2023/06/01 10:14:21;;;;;;;1.70;1.20;;;26.10;74.40;;;;;;5090337;28;20435;-58
2023/06/01 10:16:52;;;;;;;1.38;0.90;;;26.20;72.50;;;;;;5087445;28;20410;-59
2023/06/01 10:19:20;;;;;;;3.20;1.40;;;26.40;73.00;;;;;;5096837;28;20838;-57
2023/06/01 10:21:48;;;;;;;1.50;1.00;;;26.50;70.70;;;;;;5096462;28;20736;-59
2023/06/01 10:24:17;;;;;;;1.40;1.00;;;26.50;68.40;;;;;;5097170;28;20524;-59
2023/06/01 10:26:59;;;;;;;2.03;1.10;;;26.50;68.20;;;;;;5102705;28;20428;-58
2023/06/01 10:29:28;;;;;;;1.38;1.02;;;26.40;68.70;;;;;;5089979;28;20433;-58
2023/06/01 10:31:57;;;;;;;2.47;1.20;;;26.90;67.10;;;;;;5088938;28;20426;-59
2023/06/01 10:34:41;;;;;;;2.90;1.40;;;27.40;64.00;;;;;;5090527;28;20426;-58
2023/06/01 10:37:18;;;;;;;3.40;1.50;;;27.60;60.30;;;;;;5094838;28;20420;-59
2023/06/01 10:39:46;;;;;;;1.30;0.90;;;27.70;58.50;;;;;;5096177;28;20424;-56
2023/06/01 10:42:38;;;;;;;2.28;1.00;;;28.00;57.70;;;;;;5094053;28;20452;-57
2023/06/01 10:45:07;;;;;;;2.53;1.00;;;28.10;55.30;;;;;;5089102;28;20430;-58
2023/06/01 10:47:51;;;;;;;1.70;0.90;;;27.90;54.30;;;;;;5094833;28;20917;-59
2023/06/01 10:50:19;;;;;;;1.50;1.00;;;28.20;54.80;;;;;;5094131;28;20942;-58
2023/06/01 10:52:47;;;;;;;1.85;0.90;;;28.40;54.40;;;;;;5104032;28;20702;-57
2023/06/01 10:55:23;;;;;;;3.35;1.05;;;28.70;54.10;;;;;;5109535;28;20420;-58
2023/06/01 10:57:50;;;;;;;1.33;1.00;;;28.60;52.60;;;;;;5109894;28;20424;-58
2023/06/01 11:00:20;;;;;;;1.55;1.10;;;28.20;54.10;;;;;;5095424;28;20433;-58
2023/06/01 11:02:56;;;;;;;2.15;0.90;;;27.90;54.30;;;;;;5103587;28;20427;-58
2023/06/01 11:05:41;;;;;;;1.43;0.90;;;27.40;54.20;;;;;;5112298;28;20424;-58
2023/06/01 11:08:09;;;;;;;1.10;1.00;;;27.50;55.50;;;;;;5110383;28;20504;-59
2023/06/01 11:10:55;;;;;;;1.20;0.90;;;27.70;54.60;;;;;;5106995;28;20424;-59
2023/06/01 11:13:25;;;;;;;1.90;1.00;;;27.80;54.20;;;;;;5086573;28;20487;-58
2023/06/01 11:16:32;;;;;;;1.60;1.10;;;27.80;52.70;;;;;;5101143;28;20432;-58
2023/06/01 11:19:03;;;;;;;1.50;1.00;;;28.10;52.80;;;;;;5110561;28;20427;-58
2023/06/01 11:21:33;;;;;;;1.20;1.00;;;28.30;51.80;;;;;;5098356;28;20607;-59
2023/06/01 11:24:01;;;;;;;1.50;1.00;;;28.80;50.90;;;;;;5089036;28;20486;-58
2023/06/01 11:26:33;;;;;;;2.00;1.00;;;29.10;51.20;;;;;;5109552;28;20855;-58
2023/06/01 11:29:19;;;;;;;1.50;0.90;;;29.10;51.00;;;;;;5110844;28;20490;-57
2023/06/01 11:31:47;;;;;;;2.22;1.40;;;29.10;51.00;;;;;;5111009;28;21023;-57
2023/06/01 11:34:18;;;;;;;1.50;1.00;;;29.30;50.00;;;;;;5107327;28;20736;-57
2023/06/01 11:36:47;;;;;;;1.63;0.90;;;29.10;49.20;;;;;;5110071;28;20584;-57
2023/06/01 11:39:22;;;;;;;3.33;1.13;;;29.30;49.90;;;;;;5109040;28;20428;-56
2023/06/01 11:42:04;;;;;;;2.17;1.10;;;29.50;49.50;;;;;;5111091;28;20584;-58
2023/06/01 11:44:31;;;;;;;1.40;0.90;;;29.40;48.40;;;;;;5108915;28;20416;-58
2023/06/01 11:46:58;;;;;;;1.30;0.93;;;29.20;48.70;;;;;;5107184;28;20739;-59
2023/06/01 11:49:27;;;;;;;1.40;1.00;;;29.40;48.80;;;;;;5107755;28;20507;-57
2023/06/01 11:51:55;;;;;;;2.10;1.00;;;29.30;49.00;;;;;;5111200;28;20859;-58
2023/06/01 11:54:24;;;;;;;1.85;1.00;;;29.80;48.80;;;;;;5109458;28;20489;-58
2023/06/01 11:56:52;;;;;;;2.20;1.10;;;29.80;48.50;;;;;;5109484;28;20473;-58
2023/06/01 11:59:20;;;;;;;2.00;1.00;;;30.10;48.10;;;;;;5113127;28;20514;-58
2023/06/01 12:01:49;;;;;;;1.20;0.90;;;30.40;47.60;;;;;;5114770;28;20412;-58
2023/06/01 12:04:17;;;;;;;1.70;1.00;;;30.10;46.70;;;;;;5103671;28;20436;-59
2023/06/01 12:06:46;;;;;;;1.10;0.90;;;29.90;47.00;;;;;;5094924;28;20456;-59
2023/06/01 12:09:15;;;;;;;1.30;1.00;;;29.90;47.60;;;;;;5113003;28;20501;-59
2023/06/01 12:11:44;;;;;;;3.08;1.30;;;30.10;46.90;;;;;;5112869;28;20607;-59
2023/06/01 12:14:12;;;;;;;1.58;1.20;;;30.70;44.60;;;;;;5113958;28;20509;-58
2023/06/01 12:16:56;;;;;;;1.50;0.90;;;30.60;43.30;;;;;;5095956;28;20888;-60
2023/06/01 12:19:23;;;;;;;2.78;1.20;;;30.60;43.40;;;;;;5097976;28;20528;-58
2023/06/01 12:21:53;;;;;;;1.50;0.90;;;30.50;43.80;;;;;;5093573;28;20429;-60
2023/06/01 12:24:28;;;;;;;1.40;1.10;;;30.10;43.00;;;;;;5095328;28;20732;-59
2023/06/01 12:26:55;;;;;;;1.20;0.90;;;30.10;43.30;;;;;;5098735;28;20440;-59
2023/06/01 12:29:38;;;;;;;1.80;1.00;;;30.20;43.00;;;;;;5094350;28;20425;-59
2023/06/01 12:32:07;;;;;;;1.55;1.00;;;29.90;43.50;;;;;;5093075;28;20873;-60
2023/06/01 12:34:34;;;;;;;1.50;0.90;;;30.30;42.90;;;;;;5093724;28;20429;-59
2023/06/01 12:37:14;;;;;;;1.50;1.00;;;30.60;40.10;;;;;;5112800;28;20909;-57
2023/06/01 12:39:41;;;;;;;1.30;1.00;;;30.50;37.30;;;;;;5113395;28;20770;-59
2023/06/01 12:42:10;;;;;;;1.73;0.90;;;30.30;40.00;;;;;;5112932;28;20427;-58
2023/06/01 12:44:37;;;;;;;1.73;0.90;;;30.10;40.70;;;;;;5111715;28;20522;-58
2023/06/01 12:47:05;;;;;;;1.50;0.90;;;30.40;40.60;;;;;;5106688;28;20561;-59
2023/06/01 12:49:32;;;;;;;1.33;0.90;;;30.50;41.10;;;;;;5113508;28;20420;-60
2023/06/01 12:51:59;;;;;;;1.70;0.80;;;30.60;39.70;;;;;;5112442;28;21073;-59
2023/06/01 12:54:28;;;;;;;1.13;0.80;;;30.60;40.40;;;;;;5106492;28;20477;-58
2023/06/01 12:56:56;;;;;;;1.40;0.90;;;30.80;39.20;;;;;;5114695;28;20874;-59